Latest Coastal Weather Observations for Yeppoon

IDQ60701

Issued at 2:45 pm EST Sunday 23 November 2014 (issued every 10 minutes, with the page automatically refreshed every 10 minutes)

About coastal observations | Map of coastal stations | Coastal observations for QLD | Marine services | Other Formats
Station Details ID: 033294 Name: YEPPOON THE ESPLANADE Lat: -23.14 Lon: 150.75 Height: 5.5 m
Data from the previous 72 hours. | See also: Recent months at Yeppoon
Date/Time
EST
Temp

°C
Wind Pressure Rain
since 9am
mm
Weather Cloud Vis
km
Sea
Height
m
Swell
Dir
 
Speed
knots
Gust
knots
hPa Trend Height
m
Period
s
Dir
23/02:30pm 27.5 ENE 11 15 1015.0 - 0.0 - - - - - - -
23/02:00pm 27.7 ENE 10 14 1015.2 - 0.0 - - - - - - -
23/01:30pm 27.6 ENE 10 14 1015.4 - 0.0 - - - - - - -
23/01:00pm 27.8 ENE 11 13 1015.9 - 0.0 - - - - - - -
23/12:30pm 27.7 NE 11 14 1016.2 - 0.0 - - - - - - -
23/12:00pm 27.8 ENE 11 13 1016.6 - 0.0 - - - - - - -
23/11:30am 27.9 ENE 11 13 1016.9 - 0.0 - - - - - - -
23/11:00am 28.2 ENE 9 12 1017.3 - 0.0 - - - - - - -
23/10:30am 28.4 ENE 8 12 1017.5 - 0.0 - - - - - - -
23/10:00am 28.3 NE 9 12 1017.6 - 0.0 - - - - - - -
23/09:30am 28.0 NE 9 11 1017.6 - 0.0 - - - - - - -
23/09:00am 27.6 NE 8 10 1017.5 - 0.0 - - - - - - -
23/08:30am 27.4 NE 7 9 1017.4 - 0.0 - - - - - - -
23/08:00am 26.7 NNE 5 7 1017.3 - 0.0 - - - - - - -
23/07:30am 25.9 N 6 7 1017.1 - 0.0 - - - - - - -
23/07:00am 25.9 N 5 7 1016.8 - 0.0 - - - - - - -
23/06:30am 24.7 CALM 0 0 1016.2 - 0.0 - - - - - - -
23/06:00am 24.0 CALM 0 0 1016.0 - 0.0 - - - - - - -
23/05:30am 24.0 CALM 0 1 1015.6 - 0.0 - - - - - - -
23/05:00am 24.0 N 6 7 1015.2 - 0.0 - - - - - - -
23/04:30am 23.9 N 6 7 1014.9 - 0.0 - - - - - - -
23/04:00am 24.3 N 6 8 1014.7 - 0.0 - - - - - - -
23/03:30am 24.7 N 8 10 1014.6 - 0.0 - - - - - - -
23/03:00am 25.4 NNE 12 13 1014.6 - 0.0 - - - - - - -
23/02:30am 25.4 NNE 12 14 1014.7 - 0.0 - - - - - - -
23/02:00am 25.4 NNE 13 15 1014.7 - 0.0 - - - - - - -
23/01:30am 25.5 NNE 13 15 1014.5 - 0.0 - - - - - - -
23/01:00am 25.6 N 10 15 1014.7 - 0.0 - - - - - - -
23/12:30am 25.8 NNE 13 15 1015.0 - 0.0 - - - - - - -
23/12:00am 25.8 NNE 14 16 1015.3 - 0.0 - - - - - - -
 
Date/Time
EST
Temp

°C
Wind Pressure Rain
since 9am
mm
Weather Cloud Vis
km
Sea
Height
m
Swell
Dir
 
Speed
knots
Gust
knots
hPa Trend Height
m
Period
s
Dir
22/11:30pm 25.9 NNE 13 15 1015.7 - 0.0 - - - - - - -
22/11:00pm 26.0 NNE 15 17 1015.4 - 0.0 - - - - - - -
22/10:30pm 26.1 N 15 17 1015.5 - 0.0 - - - - - - -
22/10:00pm 26.2 NNE 15 18 1015.5 - 0.0 - - - - - - -
22/09:30pm 26.3 NNE 15 18 1015.2 - 0.0 - - - - - - -
22/09:00pm 26.1 NNE 16 18 1015.1 - 0.0 - - - - - - -
22/08:30pm 26.2 NNE 15 17 1014.8 - 0.0 - - - - - - -
22/08:00pm 26.3 NNE 15 17 1014.5 - 0.0 - - - - - - -
22/07:30pm 26.4 N 16 19 1014.3 - 0.0 - - - - - - -
22/07:00pm 26.4 NNE 16 18 1013.8 - 0.0 - - - - - - -
22/06:30pm 26.5 NNE 15 18 1013.6 - 0.0 - - - - - - -
22/06:00pm 26.5 NNE 16 19 1013.4 - 0.0 - - - - - - -
22/05:30pm 26.8 NNE 17 20 1012.9 - 0.0 - - - - - - -
22/05:00pm 26.9 NNE 17 19 1012.4 - 0.0 - - - - - - -
22/04:30pm 27.1 NNE 16 19 1012.3 - 0.0 - - - - - - -
22/04:00pm 27.4 NNE 15 19 1012.3 - 0.0 - - - - - - -
22/03:30pm 27.8 NNE 15 18 1012.3 - 0.0 - - - - - - -
22/03:00pm 28.0 NNE 17 20 1012.7 - 0.0 - - - - - - -
22/02:30pm 28.0 NNE 15 18 1012.9 - 0.0 - - - - - - -
22/02:00pm 28.1 NNE 13 17 1013.3 - 0.0 - - - - - - -
22/01:30pm 28.3 NNE 14 17 1013.7 - 0.0 - - - - - - -
22/01:00pm 28.0 NE 13 16 1014.1 - 0.0 - - - - - - -
22/12:30pm 28.0 NE 12 15 1014.5 - 0.0 - - - - - - -
22/12:00pm 27.9 NE 11 14 1015.0 - 0.0 - - - - - - -
22/11:30am 27.8 NE 10 12 1015.2 - 0.0 - - - - - - -
22/11:00am 28.2 NE 9 11 1015.5 - 0.0 - - - - - - -
22/10:30am 27.6 NNE 9 11 1015.8 - 0.0 - - - - - - -
22/10:00am 27.4 NE 10 13 1016.0 - 0.0 - - - - - - -
22/09:30am 27.5 NE 10 13 1016.2 - 0.0 - - - - - - -
22/09:00am 27.6 NE 10 13 1016.2 - 0.0 - - - - - - -
22/08:30am 27.2 NE 7 8 1016.2 - 0.0 - - - - - - -
22/08:00am 27.1 NNE 8 10 1016.3 - 0.0 - - - - - - -
22/07:30am 26.4 NNE 9 11 1016.3 - 0.0 - - - - - - -
22/07:00am 25.9 N 7 9 1016.2 - 0.0 - - - - - - -
22/06:30am 25.0 CALM 0 0 1015.9 - 0.0 - - - - - - -
22/06:00am 23.5 W 1 3 1015.3 - 0.0 - - - - - - -
22/05:30am 23.0 CALM 0 3 1014.7 - 0.0 - - - - - - -
22/05:00am 23.2 NNW 2 3 1014.2 - 0.0 - - - - - - -
22/04:30am 23.6 NNW 3 5 1013.8 - 0.0 - - - - - - -
22/04:00am 23.8 N 3 5 1013.5 - 0.0 - - - - - - -
22/03:30am 24.0 N 3 7 1013.3 - 0.0 - - - - - - -
22/03:00am 24.2 N 5 7 1013.0 - 0.0 - - - - - - -
22/02:30am 24.2 N 4 7 1013.2 - 0.0 - - - - - - -
22/02:00am 24.0 N 3 6 1013.3 - 0.0 - - - - - - -
22/01:30am 24.3 N 5 8 1013.5 - 0.0 - - - - - - -
22/01:00am 24.4 N 5 7 1013.8 - 0.0 - - - - - - -
22/12:30am 24.5 N 5 7 1014.1 - 0.0 - - - - - - -
22/12:00am 24.6 N 6 8 1014.4 - 0.0 - - - - - - -
 
Date/Time
EST
Temp

°C
Wind Pressure Rain
since 9am
mm
Weather Cloud Vis
km
Sea
Height
m
Swell
Dir
 
Speed
knots
Gust
knots
hPa Trend Height
m
Period
s
Dir
21/11:30pm 24.6 N 6 9 1014.6 - 0.0 - - - - - - -
21/11:00pm 24.8 N 6 8 1014.7 - 0.0 - - - - - - -
21/10:30pm 25.2 N 8 10 1014.7 - 0.0 - - - - - - -
21/10:00pm 25.4 N 8 12 1014.6 - 0.0 - - - - - - -
21/09:30pm 25.8 N 13 17 1014.5 - 0.0 - - - - - - -
21/09:00pm 25.9 N 16 19 1014.2 - 0.0 - - - - - - -
21/08:30pm 26.0 N 17 19 1013.7 - 0.0 - - - - - - -
21/08:00pm 26.2 N 18 22 1013.4 - 0.0 - - - - - - -
21/07:30pm 26.1 NNE 19 21 1013.3 - 0.0 - - - - - - -
21/07:00pm 26.1 NNE 19 21 1013.1 - 0.0 - - - - - - -
21/06:30pm 26.1 NNE 20 23 1012.9 - 0.0 - - - - - - -
21/06:00pm 26.2 NNE 19 23 1012.6 - 0.0 - - - - - - -
21/05:30pm 26.4 NNE 20 23 1012.3 - 0.0 - - - - - - -
21/05:00pm 26.7 NNE 19 21 1012.1 - 0.0 - - - - - - -
21/04:30pm 27.1 NNE 18 21 1012.1 - 0.0 - - - - - - -
21/04:00pm 27.3 NNE 18 21 1012.1 - 0.0 - - - - - - -
21/03:30pm 27.6 NNE 17 21 1012.0 - 0.0 - - - - - - -
21/03:00pm 27.8 NNE 16 19 1012.3 - 0.0 - - - - - - -
21/02:30pm 27.8 NNE 15 18 1012.6 - 0.0 - - - - - - -
21/02:00pm 27.8 NNE 16 20 1012.9 - 0.0 - - - - - - -
21/01:30pm 27.9 NNE 15 19 1013.3 - 0.0 - - - - - - -
21/01:00pm 28.4 NNE 14 19 1013.8 - 0.0 - - - - - - -
21/12:30pm 28.2 NNE 14 17 1014.3 - 0.0 - - - - - - -
21/12:00pm 28.1 NNE 12 16 1014.9 - 0.0 - - - - - - -
21/11:30am 27.9 NNE 12 15 1015.2 - 0.0 - - - - - - -
21/11:00am 27.8 NNE 13 15 1015.6 - 0.0 - - - - - - -
21/10:30am 27.5 NNE 11 14 1016.2 - 0.0 - - - - - - -
21/10:00am 27.6 NNE 10 13 1016.5 - 0.0 - - - - - - -
21/09:30am 27.2 NE 9 10 1016.5 - 0.0 - - - - - - -
21/09:00am 27.8 NE 9 11 1016.6 - 0.0 - - - - - - -
21/08:30am 26.9 NNE 7 9 1016.7 - 0.0 - - - - - - -
21/08:00am 26.6 N 10 13 1016.7 - 0.0 - - - - - - -
21/07:30am 26.0 N 8 10 1016.4 - 0.0 - - - - - - -
21/07:00am 24.7 NW 3 5 1016.3 - 0.0 - - - - - - -
21/06:30am 24.4 N 5 7 1015.9 - 0.0 - - - - - - -
21/06:00am 24.2 N 5 6 1015.5 - 0.0 - - - - - - -
21/05:30am 23.7 N 3 5 1015.3 - 0.0 - - - - - - -
21/05:00am 23.7 N 5 7 1014.9 - 0.0 - - - - - - -
21/04:30am 23.2 N 1 4 1014.7 - 0.0 - - - - - - -
21/04:00am 23.2 N 4 5 1014.3 - 0.0 - - - - - - -
21/03:30am 23.4 CALM 0 2 1014.3 - 0.0 - - - - - - -
21/03:00am 23.6 N 4 6 1014.1 - 0.0 - - - - - - -
21/02:30am 24.0 N 6 8 1014.1 - 0.0 - - - - - - -
21/02:00am 24.2 N 5 8 1014.4 - 0.0 - - - - - - -
21/01:30am 24.6 N 6 9 1014.6 - 0.0 - - - - - - -
21/01:00am 24.9 N 14 19 1014.8 - 0.0 - - - - - - -
21/12:30am 25.4 NNE 17 19 1014.7 - 0.0 - - - - - - -
21/12:00am 25.5 NNE 17 20 1015.0 - 0.0 - - - - - - -
 
Date/Time
EST
Temp

°C
Wind Pressure Rain
since 9am
mm
Weather Cloud Vis
km
Sea
Height
m
Swell
Dir
 
Speed
knots
Gust
knots
hPa Trend Height
m
Period
s
Dir
20/11:30pm 25.7 N 16 18 1015.7 - 0.0 - - - - - - -
20/11:00pm 25.8 NNE 16 18 1016.1 - 0.0 - - - - - - -
20/10:30pm 25.9 NNE 15 17 1016.4 - 0.0 - - - - - - -
20/10:00pm 26.0 NNE 12 15 1016.5 - 0.0 - - - - - - -
20/09:30pm 26.0 NNE 12 15 1016.4 - 0.0 - - - - - - -
20/09:00pm 26.0 NNE 12 14 1016.1 - 0.0 - - - - - - -
20/08:30pm 26.1 NNE 12 14 1015.8 - 0.0 - - - - - - -
20/08:00pm 26.1 NNE 13 16 1015.6 - 0.0 - - - - - - -
20/07:30pm 26.1 NNE 14 17 1015.3 - 0.0 - - - - - - -
20/07:00pm 26.1 NNE 15 18 1014.7 - 0.0 - - - - - - -
20/06:30pm 26.0 NNE 16 18 1014.5 - 0.0 - - - - - - -
20/06:00pm 26.2 NNE 16 18 1013.9 - 0.0 - - - - - - -
20/05:30pm 26.4 NNE 17 19 1013.6 - 0.0 - - - - - - -
20/05:00pm 26.6 NNE 17 20 1013.4 - 0.0 - - - - - - -
20/04:30pm 26.9 NNE 16 20 1013.3 - 0.0 - - - - - - -
20/04:00pm 27.1 NE 15 19 1013.2 - 0.0 - - - - - - -
20/03:30pm 27.3 NE 14 18 1013.2 - 0.0 - - - - - - -
20/03:00pm 27.6 NE 14 18 1013.4 - 0.0 - - - - - - -

Other Formats:

Comma delimited format used in spreadsheet applications
http://www.bom.gov.au/fwo/IDQ60701/IDQ60701.94373.axf

JavaScript Object Notation format (JSON) in row-major order
http://www.bom.gov.au/fwo/IDQ60701/IDQ60701.94373.json